createdAt,value
2022-11-20T00:00:20.889Z,9.98
2022-11-20T00:02:47.763Z,10.63
2022-11-20T00:05:14.785Z,11.93
2022-11-20T00:07:41.851Z,12.52
2022-11-20T00:10:09.116Z,13.75
2022-11-20T00:12:36.013Z,11.43
2022-11-20T00:15:02.980Z,12.45
2022-11-20T00:17:29.877Z,15.82
2022-11-20T00:19:56.839Z,10.63
2022-11-20T00:22:23.782Z,12.00
2022-11-20T00:24:50.656Z,16.17
2022-11-20T00:27:17.580Z,12.50
2022-11-20T00:29:44.556Z,15.05
2022-11-20T00:32:11.460Z,13.05
2022-11-20T00:34:38.342Z,13.85
2022-11-20T00:37:05.435Z,11.15
2022-11-20T00:39:32.393Z,17.38
2022-11-20T00:41:59.246Z,10.43
2022-11-20T00:44:26.152Z,11.32
2022-11-20T00:46:53.075Z,12.13
2022-11-20T00:49:20.425Z,13.13
2022-11-20T00:51:47.416Z,19.05
2022-11-20T00:54:14.440Z,13.20
2022-11-20T00:56:41.328Z,13.93
2022-11-20T00:59:10.900Z,14.20
2022-11-20T01:01:38.857Z,20.08
2022-11-20T01:04:06.260Z,13.55
2022-11-20T01:06:39.141Z,19.65
2022-11-20T01:09:11.686Z,11.13
2022-11-20T01:11:42.726Z,11.82
2022-11-20T01:14:16.837Z,11.63
2022-11-20T01:16:46.671Z,13.68
2022-11-20T01:19:18.183Z,11.50
2022-11-20T01:21:47.331Z,14.10
2022-11-20T01:24:16.756Z,11.68
2022-11-20T01:26:46.011Z,13.07
2022-11-20T01:29:19.503Z,10.65
2022-11-20T01:31:46.726Z,11.05
2022-11-20T01:34:15.970Z,10.82
2022-11-20T01:36:43.805Z,12.00
2022-11-20T01:39:17.064Z,15.50
2022-11-20T01:42:08.387Z,13.05
2022-11-20T01:44:52.089Z,11.38
2022-11-20T01:47:35.350Z,17.95
2022-11-20T01:50:10.957Z,9.25
2022-11-20T01:52:46.579Z,9.43
2022-11-20T01:55:18.850Z,10.43
2022-11-20T01:57:48.450Z,10.25
2022-11-20T02:00:18.218Z,9.10
2022-11-20T02:03:02.220Z,17.73
2022-11-20T02:05:58.988Z,13.32
2022-11-20T02:08:26.003Z,11.45
2022-11-20T02:10:53.012Z,9.73
2022-11-20T02:13:38.693Z,14.45
2022-11-20T02:16:09.382Z,17.20
2022-11-20T02:18:36.744Z,13.48
2022-11-20T02:21:21.266Z,8.95
2022-11-20T02:24:08.206Z,16.00
2022-11-20T02:26:47.141Z,9.60
2022-11-20T02:29:16.610Z,13.80
2022-11-20T02:31:44.842Z,10.75
2022-11-20T02:34:12.040Z,10.07
2022-11-20T02:36:41.404Z,20.67
2022-11-20T02:39:09.478Z,16.88
2022-11-20T02:41:38.295Z,10.07
2022-11-20T02:44:06.346Z,10.93
2022-11-20T02:46:34.458Z,10.90
2022-11-20T02:49:03.822Z,11.25
2022-11-20T02:51:31.415Z,10.95
2022-11-20T02:53:58.546Z,15.68
2022-11-20T02:56:25.708Z,17.75
2022-11-20T02:58:52.801Z,9.80
2022-11-20T03:01:19.863Z,10.70
2022-11-20T03:03:46.878Z,11.30
2022-11-20T03:06:13.821Z,17.08
2022-11-20T03:08:40.730Z,11.52
2022-11-20T03:11:08.628Z,8.45
2022-11-20T03:13:36.585Z,9.65
2022-11-20T03:16:12.723Z,8.90
2022-11-20T03:18:41.244Z,6.78
2022-11-20T03:21:09.543Z,14.15
2022-11-20T03:23:37.347Z,10.13
2022-11-20T03:26:13.171Z,9.13
2022-11-20T03:28:40.441Z,11.27
2022-11-20T03:31:09.495Z,12.93
2022-11-20T03:33:36.486Z,15.70
2022-11-20T03:36:08.647Z,10.60
2022-11-20T03:38:35.890Z,13.00
2022-11-20T03:41:05.373Z,10.90
2022-11-20T03:43:33.119Z,14.45
2022-11-20T03:46:00.464Z,8.68
2022-11-20T03:48:28.074Z,8.77
2022-11-20T03:51:15.130Z,15.43
2022-11-20T03:56:11.386Z,13.07
2022-11-20T03:58:43.040Z,13.65
2022-11-20T04:01:15.588Z,13.52
2022-11-20T04:03:43.603Z,14.75
2022-11-20T04:06:13.855Z,13.00
2022-11-20T04:08:41.497Z,12.88
2022-11-20T04:11:22.593Z,15.10
2022-11-20T04:13:54.937Z,18.27
2022-11-20T04:16:24.173Z,12.80
2022-11-20T04:18:59.416Z,10.60
2022-11-20T04:21:27.380Z,7.22
2022-11-20T04:23:55.504Z,12.88
2022-11-20T04:26:24.318Z,10.40
2022-11-20T04:28:51.401Z,16.88
2022-11-20T04:31:21.847Z,8.38
2022-11-20T04:33:49.090Z,9.65
2022-11-20T04:36:19.160Z,9.77
2022-11-20T04:38:46.539Z,12.25
2022-11-20T04:41:19.425Z,6.68
2022-11-20T04:44:00.049Z,10.27
2022-11-20T04:46:28.589Z,8.77
2022-11-20T04:48:55.981Z,9.60
2022-11-20T04:51:23.001Z,24.92
2022-11-20T04:53:50.252Z,15.68
2022-11-20T04:56:17.220Z,10.63
2022-11-20T04:58:45.031Z,11.70
2022-11-20T05:01:14.902Z,11.20
2022-11-20T05:03:42.995Z,9.10
2022-11-20T05:06:12.356Z,12.07
2022-11-20T05:08:39.467Z,8.32
2022-11-20T05:11:09.198Z,10.55
2022-11-20T05:13:36.261Z,9.90
2022-11-20T05:16:05.878Z,14.60
2022-11-20T05:18:33.951Z,13.75
2022-11-20T05:21:01.211Z,11.57
2022-11-20T05:23:28.508Z,10.00
2022-11-20T05:25:59.405Z,6.32
2022-11-20T05:28:27.929Z,14.25
2022-11-20T05:30:54.888Z,8.93
2022-11-20T05:33:22.129Z,12.50
2022-11-20T05:35:49.586Z,9.48
2022-11-20T05:38:17.179Z,8.82
2022-11-20T05:40:44.207Z,10.38
2022-11-20T05:43:11.138Z,13.63
2022-11-20T05:45:38.131Z,18.63
2022-11-20T05:48:05.338Z,17.70
2022-11-20T05:50:32.478Z,12.18
2022-11-20T05:53:00.730Z,12.65
2022-11-20T05:55:28.614Z,10.95
2022-11-20T05:57:56.256Z,13.95
2022-11-20T06:00:23.490Z,12.07
2022-11-20T06:02:50.664Z,9.52
2022-11-20T06:05:17.574Z,12.25
2022-11-20T06:07:44.690Z,18.27
2022-11-20T06:10:12.594Z,9.77
2022-11-20T06:12:39.479Z,11.55
2022-11-20T06:15:07.278Z,12.88
2022-11-20T06:17:34.262Z,8.20
2022-11-20T06:20:01.191Z,12.23
2022-11-20T06:22:28.083Z,8.35
2022-11-20T06:24:55.075Z,13.55
2022-11-20T06:27:21.969Z,15.38
2022-11-20T06:29:48.865Z,13.52
2022-11-20T06:32:15.748Z,15.50
2022-11-20T06:34:42.738Z,14.32
2022-11-20T06:37:09.759Z,16.13
2022-11-20T06:39:36.774Z,13.70
2022-11-20T06:42:03.834Z,12.35
2022-11-20T06:44:30.766Z,17.20
2022-11-20T06:46:57.684Z,16.35
2022-11-20T06:49:24.985Z,13.43
2022-11-20T06:51:52.018Z,13.63
2022-11-20T06:54:18.867Z,9.07
2022-11-20T06:56:49.071Z,10.40
2022-11-20T06:59:16.198Z,9.40
2022-11-20T07:01:43.044Z,13.13
2022-11-20T07:04:10.255Z,11.18
2022-11-20T07:06:37.247Z,16.80
2022-11-20T07:09:08.529Z,11.98
2022-11-20T07:11:38.529Z,15.70
2022-11-20T07:14:05.604Z,13.25
2022-11-20T07:16:32.520Z,10.35
2022-11-20T07:18:59.431Z,13.85
2022-11-20T07:21:26.306Z,18.15
2022-11-20T07:23:53.323Z,10.82
2022-11-20T07:26:20.659Z,16.88
2022-11-20T07:28:47.670Z,11.43
2022-11-20T07:31:18.796Z,12.55
2022-11-20T07:33:46.475Z,13.85
2022-11-20T07:36:13.387Z,15.50
2022-11-20T07:38:40.251Z,16.85
2022-11-20T07:41:07.225Z,17.85
2022-11-20T07:43:39.804Z,15.00
2022-11-20T07:46:08.210Z,13.43
2022-11-20T07:48:35.226Z,13.73
2022-11-20T07:51:02.276Z,14.93
2022-11-20T07:53:29.120Z,15.38
2022-11-20T07:55:56.044Z,19.77
2022-11-20T07:58:23.016Z,17.20
2022-11-20T08:00:50.179Z,16.95
2022-11-20T08:03:21.686Z,16.60
2022-11-20T08:05:51.455Z,22.90
2022-11-20T08:08:18.326Z,15.95
2022-11-20T08:10:45.231Z,19.30
2022-11-20T08:13:30.643Z,17.00
2022-11-20T08:15:57.554Z,14.93
2022-11-20T08:18:32.691Z,19.63
2022-11-20T08:21:04.887Z,24.92
2022-11-20T08:23:32.142Z,17.77
2022-11-20T08:25:59.192Z,14.38
2022-11-20T08:28:26.098Z,17.85
2022-11-20T08:30:59.377Z,22.05
2022-11-20T08:33:26.547Z,16.35
2022-11-20T08:35:53.453Z,20.40
2022-11-20T08:38:20.361Z,26.17
2022-11-20T08:41:07.168Z,24.30
2022-11-20T08:46:01.702Z,22.73
2022-11-20T08:48:28.608Z,18.20
2022-11-20T08:50:59.480Z,17.17
2022-11-20T08:53:27.610Z,16.98
2022-11-20T08:55:54.899Z,18.13
2022-11-20T08:58:21.798Z,14.90
2022-11-20T09:00:48.757Z,21.17
2022-11-20T09:03:15.637Z,14.63
2022-11-20T09:05:43.824Z,11.25
2022-11-20T09:08:10.734Z,16.83
2022-11-20T09:10:40.727Z,13.80
2022-11-20T09:13:07.894Z,16.55
2022-11-20T09:15:35.391Z,15.50
2022-11-20T09:18:04.756Z,22.63
2022-11-20T09:20:32.187Z,21.98
2022-11-20T09:22:59.211Z,13.38
2022-11-20T09:25:26.393Z,16.73
2022-11-20T09:28:00.450Z,20.63
2022-11-20T09:30:28.220Z,21.50
2022-11-20T09:32:55.818Z,21.60
2022-11-20T09:35:22.712Z,19.23
2022-11-20T09:37:51.174Z,17.75
2022-11-20T09:40:22.467Z,18.58
2022-11-20T09:43:17.962Z,18.17
2022-11-20T10:17:39.682Z,11.60
2022-11-20T10:20:26.503Z,17.20
2022-11-20T10:23:09.716Z,20.65
2022-11-20T10:26:02.842Z,17.02
2022-11-20T10:28:55.402Z,24.05
2022-11-20T10:31:47.233Z,20.92
2022-11-20T10:34:27.003Z,22.17
2022-11-20T10:37:04.880Z,18.02
2022-11-20T10:40:13.202Z,23.33
2022-11-20T10:42:46.714Z,21.05
2022-11-20T10:45:25.466Z,14.93
2022-11-20T10:47:56.473Z,24.23
2022-11-20T10:50:24.426Z,9.43
2022-11-20T10:53:02.381Z,22.30
2022-11-20T10:55:41.725Z,12.25
2022-11-20T10:58:15.888Z,22.05
2022-11-20T11:00:43.394Z,21.25
2022-11-20T11:03:36.684Z,20.40
2022-11-20T11:06:11.538Z,21.77
2022-11-20T11:08:42.173Z,18.35
2022-11-20T11:11:28.852Z,16.70
2022-11-20T11:14:13.537Z,24.52
2022-11-20T11:16:56.741Z,25.17
2022-11-20T11:19:23.886Z,18.52
2022-11-20T11:21:55.766Z,24.50
2022-11-20T11:24:45.979Z,13.43
2022-11-20T11:27:18.921Z,19.02
2022-11-20T11:29:48.765Z,18.23
2022-11-20T11:32:19.912Z,12.85
2022-11-20T11:34:59.470Z,22.52
2022-11-20T11:37:33.933Z,17.42
2022-11-20T11:40:23.762Z,16.55
2022-11-20T11:43:02.188Z,22.15
2022-11-20T11:45:29.414Z,17.42
2022-11-20T11:47:59.866Z,15.77
2022-11-20T11:50:28.966Z,16.00
2022-11-20T11:53:15.400Z,16.80
2022-11-20T11:56:09.866Z,28.27
2022-11-20T11:58:50.704Z,19.92
2022-11-20T12:01:35.276Z,17.67
2022-11-20T12:04:23.578Z,25.30
2022-11-20T12:06:58.960Z,28.15
2022-11-20T12:09:38.682Z,29.15
2022-11-20T12:12:21.135Z,21.70
2022-11-20T12:14:52.013Z,26.30
2022-11-20T12:17:19.040Z,18.67
2022-11-20T12:19:45.998Z,22.75
2022-11-20T12:22:46.936Z,23.15
2022-11-20T12:25:16.786Z,26.33
2022-11-20T12:28:20.589Z,23.10
2022-11-20T12:31:15.200Z,23.42
2022-11-20T12:33:56.839Z,21.15
2022-11-20T12:36:29.612Z,29.63
2022-11-20T12:38:59.685Z,22.05
2022-11-20T12:42:00.754Z,18.90
2022-11-20T12:45:13.223Z,28.45
2022-11-20T12:47:48.816Z,20.02
2022-11-20T12:51:13.550Z,19.75
2022-11-20T12:54:18.130Z,26.65
2022-11-20T12:57:03.446Z,19.35
2022-11-20T12:59:48.666Z,22.95
2022-11-20T13:02:39.426Z,28.05
2022-11-20T13:05:33.792Z,30.40
2022-11-20T13:08:03.160Z,28.17
2022-11-20T13:10:50.257Z,22.13
2022-11-20T13:13:31.092Z,27.77
2022-11-20T13:16:26.278Z,26.67
2022-11-20T13:18:53.429Z,34.85
2022-11-20T13:21:36.731Z,32.47
2022-11-20T13:24:07.469Z,23.80
2022-11-20T13:26:35.229Z,29.60
2022-11-20T13:29:17.588Z,30.20
2022-11-20T13:31:47.043Z,28.05
2022-11-20T13:34:27.167Z,31.83
2022-11-20T13:36:56.906Z,32.58
2022-11-20T13:39:34.740Z,25.70
2022-11-20T13:42:04.371Z,29.52
2022-11-20T13:44:36.798Z,26.80
2022-11-20T13:47:03.764Z,31.48
2022-11-20T13:49:45.833Z,23.77
2022-11-20T13:52:50.283Z,29.13
2022-11-20T13:55:20.541Z,27.95
2022-11-20T13:57:50.487Z,32.05
2022-11-20T14:00:20.722Z,48.97
2022-11-20T14:03:06.270Z,34.58
2022-11-20T14:05:38.482Z,26.75
2022-11-20T14:08:11.838Z,33.22
2022-11-20T14:10:40.594Z,26.30
2022-11-20T14:13:22.087Z,30.08
2022-11-20T14:15:48.983Z,32.38
2022-11-20T14:18:21.431Z,28.08
2022-11-20T14:20:49.114Z,20.45
2022-11-20T14:23:30.316Z,37.47
2022-11-20T14:25:58.061Z,29.30
2022-11-20T14:28:31.174Z,41.22
2022-11-20T14:30:58.879Z,37.08
2022-11-20T14:33:28.125Z,36.08
2022-11-20T14:35:57.490Z,25.23
2022-11-20T14:38:29.689Z,32.60
2022-11-20T14:41:07.759Z,33.65
2022-11-20T14:43:37.012Z,35.03
2022-11-20T14:46:10.158Z,39.30
2022-11-20T14:48:43.008Z,40.50
2022-11-20T14:51:34.052Z,33.42
2022-11-20T14:54:12.062Z,38.42
2022-11-20T14:56:39.119Z,38.67
2022-11-20T14:59:06.763Z,32.10
2022-11-20T15:01:34.848Z,40.55
2022-11-20T15:04:12.241Z,45.22
2022-11-20T15:06:50.468Z,43.45
2022-11-20T15:09:17.477Z,28.88
2022-11-20T15:11:58.002Z,33.05
2022-11-20T15:14:26.715Z,44.05
2022-11-20T15:16:54.293Z,37.95
2022-11-20T15:19:25.854Z,36.22
2022-11-20T15:21:53.182Z,47.03
2022-11-20T15:24:20.812Z,30.02
2022-11-20T15:26:48.840Z,36.85
2022-11-20T15:29:20.345Z,32.97
2022-11-20T15:31:47.353Z,37.17
2022-11-20T15:34:16.100Z,54.90
2022-11-20T15:36:44.576Z,37.45
2022-11-20T15:39:12.703Z,45.90
2022-11-20T15:41:40.020Z,39.92
2022-11-20T15:44:07.255Z,37.75
2022-11-20T15:46:39.578Z,35.95
2022-11-20T15:49:10.239Z,45.42
2022-11-20T15:51:39.436Z,35.78
2022-11-20T15:54:23.675Z,32.47
2022-11-20T15:56:53.431Z,33.88
2022-11-20T15:59:21.096Z,40.55
2022-11-20T16:01:48.011Z,33.70
2022-11-20T16:04:17.660Z,42.13
2022-11-20T16:06:44.641Z,37.42
2022-11-20T16:09:11.814Z,33.83
2022-11-20T16:11:39.037Z,40.83
2022-11-20T16:14:26.026Z,40.13
2022-11-20T16:16:53.320Z,40.67
2022-11-20T16:19:20.302Z,50.92
2022-11-20T16:21:47.756Z,48.15
2022-11-20T16:24:15.441Z,36.33
2022-11-20T16:26:42.938Z,36.58
2022-11-20T16:29:11.231Z,33.10
2022-11-20T16:31:38.538Z,34.45
2022-11-20T16:34:12.447Z,33.53
2022-11-20T16:36:45.852Z,62.25
2022-11-20T16:39:13.460Z,37.15
2022-11-20T16:41:40.366Z,36.15
2022-11-20T16:44:10.229Z,31.80
2022-11-20T16:46:37.380Z,48.33
2022-11-20T16:49:13.363Z,33.53
2022-11-20T16:51:40.344Z,51.80
2022-11-20T16:54:09.435Z,31.98
2022-11-20T16:56:36.909Z,50.28
2022-11-20T16:59:04.653Z,49.28
2022-11-20T17:01:32.044Z,13.75
2022-11-20T17:04:01.961Z,8.80
2022-11-20T17:06:31.870Z,11.68
2022-11-20T17:09:00.034Z,14.32
2022-11-20T17:11:27.659Z,11.30
2022-11-20T17:14:03.742Z,10.55
2022-11-20T17:16:31.435Z,14.50
2022-11-20T17:19:02.827Z,15.00
2022-11-20T17:21:36.306Z,12.68
2022-11-20T17:24:06.587Z,16.33
2022-11-20T17:26:34.709Z,12.55
2022-11-20T17:29:07.474Z,12.55
2022-11-20T17:31:35.223Z,10.98
2022-11-20T17:34:02.712Z,14.48
2022-11-20T17:36:30.979Z,10.07
2022-11-20T17:38:58.549Z,9.73
2022-11-20T17:41:28.351Z,6.13
2022-11-20T17:43:57.676Z,6.15
2022-11-20T17:46:29.995Z,8.73
2022-11-20T17:48:57.130Z,5.28
2022-11-20T17:51:27.011Z,4.80
2022-11-20T17:53:56.842Z,4.97
2022-11-20T17:56:42.509Z,3.40
2022-11-20T17:59:12.370Z,4.10
2022-11-20T18:01:40.670Z,3.42
2022-11-20T18:04:07.595Z,5.68
2022-11-20T18:06:34.504Z,3.60
2022-11-20T18:09:04.284Z,2.03
2022-11-20T18:11:39.578Z,3.10
2022-11-20T18:14:32.843Z,3.47
2022-11-20T18:17:09.718Z,2.13
2022-11-20T18:22:27.830Z,4.32
2022-11-20T18:24:54.834Z,0.75
2022-11-20T18:27:23.317Z,1.67
2022-11-20T18:29:52.194Z,2.70
2022-11-20T18:32:21.634Z,1.17
2022-11-20T18:34:49.275Z,3.72
2022-11-20T18:37:17.127Z,2.00
2022-11-20T18:39:44.442Z,1.73
2022-11-20T18:42:32.457Z,2.08
2022-11-20T18:45:00.453Z,1.48
2022-11-20T18:47:32.130Z,2.00
2022-11-20T18:50:01.277Z,1.67
2022-11-20T18:52:34.196Z,1.67
2022-11-20T18:55:02.702Z,2.05
2022-11-20T18:57:30.109Z,2.85
2022-11-20T19:00:06.374Z,2.50
2022-11-20T19:02:41.093Z,1.58
2022-11-20T19:05:09.996Z,2.08
2022-11-20T19:07:36.965Z,1.33
2022-11-20T19:10:05.298Z,2.63
2022-11-20T19:12:32.225Z,1.25
2022-11-20T19:14:59.121Z,1.92
2022-11-20T19:17:26.072Z,3.20
2022-11-20T19:19:55.056Z,4.10
2022-11-20T19:22:22.488Z,1.27
2022-11-20T19:24:49.848Z,1.90
2022-11-20T19:27:17.046Z,3.10
2022-11-20T19:29:44.137Z,1.10
2022-11-20T19:32:11.479Z,1.40
2022-11-20T19:34:38.456Z,2.58
2022-11-20T19:37:05.560Z,1.38
2022-11-20T19:39:32.541Z,0.88
2022-11-20T19:41:59.534Z,0.55
2022-11-20T19:44:26.393Z,0.70
2022-11-20T19:46:53.787Z,0.98
2022-11-20T19:49:20.917Z,0.80
2022-11-20T19:51:49.543Z,0.40
2022-11-20T19:54:17.560Z,2.15
2022-11-20T19:56:45.612Z,1.15
2022-11-20T19:59:13.175Z,1.38
2022-11-20T20:01:40.280Z,0.57
2022-11-20T20:04:07.329Z,0.47
2022-11-20T20:06:36.382Z,0.40
2022-11-20T20:09:09.133Z,0.40
2022-11-20T20:11:37.192Z,0.30
2022-11-20T20:14:10.280Z,0.30
2022-11-20T20:16:37.486Z,0.35
2022-11-20T20:19:05.621Z,0.30
2022-11-20T20:21:36.428Z,1.15
2022-11-20T20:24:04.285Z,0.38
2022-11-20T20:26:32.684Z,0.63
2022-11-20T20:29:01.519Z,3.70
2022-11-20T20:31:31.102Z,0.50
2022-11-20T20:33:58.358Z,1.60
2022-11-20T20:36:25.596Z,1.58
2022-11-20T20:38:57.161Z,1.65
2022-11-20T20:41:25.137Z,1.05
2022-11-20T20:44:10.916Z,1.05
2022-11-20T20:46:38.109Z,2.28
2022-11-20T20:49:05.235Z,2.95
2022-11-20T20:51:32.144Z,1.80
2022-11-20T20:53:59.714Z,2.42
2022-11-20T20:56:26.960Z,2.38
2022-11-20T20:58:54.004Z,3.03
2022-11-20T21:01:21.524Z,4.45
2022-11-20T21:03:48.724Z,2.00
2022-11-20T21:06:15.653Z,2.55
2022-11-20T21:08:44.465Z,2.92
2022-11-20T21:11:17.878Z,3.25
2022-11-20T21:13:46.612Z,0.95
2022-11-20T21:16:15.630Z,0.50
2022-11-20T21:18:43.042Z,1.08
2022-11-20T21:21:32.012Z,1.35
2022-11-20T21:23:59.314Z,1.30
2022-11-20T21:26:26.387Z,1.40
2022-11-20T21:28:53.582Z,0.52
2022-11-20T21:31:23.608Z,2.15
2022-11-20T21:33:53.912Z,1.40
2022-11-20T21:36:31.442Z,0.88
2022-11-20T21:38:59.691Z,1.00
2022-11-20T21:41:28.493Z,0.65
2022-11-20T21:44:29.560Z,1.55
2022-11-20T21:46:45.081Z,0.95
2022-11-20T21:49:12.487Z,3.13
2022-11-20T21:51:39.429Z,1.95
2022-11-20T21:54:06.317Z,3.75
2022-11-20T21:56:33.349Z,3.35
2022-11-20T21:59:00.725Z,1.88
2022-11-20T22:01:30.442Z,2.75
2022-11-20T22:04:00.246Z,2.90
2022-11-20T22:06:32.696Z,3.90
2022-11-20T22:09:00.534Z,5.10
2022-11-20T22:11:27.888Z,6.60
2022-11-20T22:14:13.410Z,5.70
2022-11-20T22:16:40.463Z,5.20
2022-11-20T22:19:07.828Z,5.40
2022-11-20T22:21:35.307Z,7.22
2022-11-20T22:24:02.286Z,7.20
2022-11-20T22:26:33.969Z,5.90
2022-11-20T22:29:04.933Z,5.63
2022-11-20T22:31:32.433Z,4.13
2022-11-20T22:34:02.204Z,4.25
2022-11-20T22:36:31.030Z,3.50
2022-11-20T22:38:58.801Z,3.67
2022-11-20T22:41:29.165Z,6.00
2022-11-20T22:43:58.451Z,5.50
2022-11-20T22:46:27.315Z,4.63
2022-11-20T22:48:56.404Z,2.72
2022-11-20T22:51:28.482Z,3.92
2022-11-20T22:53:55.544Z,3.85
2022-11-20T22:56:22.996Z,3.92
2022-11-20T22:58:51.990Z,4.20
2022-11-20T23:01:34.785Z,3.65
2022-11-20T23:04:04.172Z,6.18
2022-11-20T23:06:34.516Z,4.18
2022-11-20T23:09:05.652Z,7.55
2022-11-20T23:11:33.492Z,9.27
2022-11-20T23:14:03.375Z,15.85
2022-11-20T23:16:31.536Z,12.77
2022-11-20T23:19:01.406Z,15.90
2022-11-20T23:21:28.832Z,10.55
2022-11-20T23:23:57.579Z,7.80
2022-11-20T23:26:30.279Z,7.30
2022-11-20T23:28:58.842Z,6.47
2022-11-20T23:31:28.426Z,10.07
2022-11-20T23:33:55.337Z,11.30
2022-11-20T23:36:22.762Z,6.55
2022-11-20T23:38:49.863Z,191.18
2022-11-20T23:41:16.854Z,193.32
2022-11-20T23:43:43.873Z,448.85
2022-11-20T23:46:15.196Z,502.08
2022-11-20T23:48:45.416Z,190.68
2022-11-20T23:51:13.169Z,296.75
2022-11-20T23:53:40.266Z,210.38
2022-11-20T23:56:07.899Z,276.20
2022-11-20T23:58:38.858Z,199.15
